createdAt,value
2019-04-03T00:02:44.098Z,13.58
2019-04-03T00:07:46.804Z,13.40
2019-04-03T00:12:49.505Z,13.27
2019-04-03T00:17:52.207Z,13.23
2019-04-03T00:22:54.929Z,13.14
2019-04-03T00:27:57.661Z,13.25
2019-04-03T00:33:00.365Z,13.40
2019-04-03T00:38:03.066Z,13.54
2019-04-03T00:43:05.755Z,13.64
2019-04-03T00:48:08.441Z,13.68
2019-04-03T00:53:11.139Z,13.68
2019-04-03T00:58:37.320Z,13.66
2019-04-03T01:03:47.306Z,13.52
2019-04-03T01:08:50.001Z,13.41
2019-04-03T01:13:52.712Z,13.36
2019-04-03T01:18:55.413Z,13.26
2019-04-03T01:23:58.118Z,13.05
2019-04-03T01:29:00.824Z,12.85
2019-04-03T01:34:03.609Z,12.62
2019-04-03T01:39:06.939Z,12.72
2019-04-03T01:44:09.752Z,12.67
2019-04-03T01:49:13.491Z,12.67
2019-04-03T01:54:16.265Z,12.54
2019-04-03T01:59:18.991Z,12.54
2019-04-03T02:04:21.764Z,12.64
2019-04-03T02:09:25.631Z,12.65
2019-04-03T02:14:28.405Z,12.55
2019-04-03T02:19:31.099Z,12.46
2019-04-03T02:24:33.857Z,12.40
2019-04-03T02:29:37.971Z,12.21
2019-04-03T02:34:41.297Z,12.06
2019-04-03T02:39:44.005Z,11.95
2019-04-03T02:44:48.370Z,11.87
2019-04-03T02:49:51.375Z,11.80
2019-04-03T02:54:54.096Z,11.81
2019-04-03T02:59:58.777Z,11.78
2019-04-03T03:05:02.258Z,11.76
2019-04-03T03:10:05.977Z,11.64
2019-04-03T03:15:11.934Z,11.69
2019-04-03T03:20:17.699Z,11.74
2019-04-03T03:25:20.502Z,11.79
2019-04-03T03:30:42.711Z,11.81
2019-04-03T03:35:34.709Z,11.81
2019-04-03T03:40:35.371Z,11.71
2019-04-03T03:45:38.307Z,11.61
2019-04-03T03:50:41.576Z,11.52
2019-04-03T03:55:45.033Z,11.37
2019-04-03T04:00:51.670Z,11.31
2019-04-03T04:05:55.602Z,11.33
2019-04-03T04:11:00.444Z,11.42
2019-04-03T04:16:04.835Z,11.43
2019-04-03T04:21:10.790Z,11.53
2019-04-03T04:26:13.163Z,11.65
2019-04-03T04:31:16.082Z,11.82
2019-04-03T04:36:18.907Z,11.87
2019-04-03T04:41:22.099Z,11.90
2019-04-03T04:46:24.910Z,11.97
2019-04-03T04:51:27.689Z,12.00
2019-04-03T04:56:30.385Z,12.04
2019-04-03T05:01:33.506Z,12.12
2019-04-03T05:06:36.764Z,12.02
2019-04-03T05:11:39.503Z,11.88
2019-04-03T05:16:42.261Z,11.82
2019-04-03T05:21:44.955Z,11.87
2019-04-03T05:26:47.656Z,11.57
2019-04-03T05:31:50.416Z,11.81
2019-04-03T05:36:53.112Z,12.01
2019-04-03T05:41:58.600Z,12.22
2019-04-03T05:47:00.618Z,12.38
2019-04-03T05:52:04.608Z,12.22
2019-04-03T05:57:07.552Z,12.16
2019-04-03T06:02:16.116Z,12.32
2019-04-03T06:07:17.434Z,12.57
2019-04-03T06:12:19.798Z,12.83
2019-04-03T06:17:22.593Z,13.02
2019-04-03T06:22:25.299Z,13.13
2019-04-03T06:27:28.157Z,13.27
2019-04-03T06:32:31.108Z,13.46
2019-04-03T06:37:33.844Z,13.59
2019-04-03T06:42:36.535Z,13.75
2019-04-03T06:47:39.239Z,13.88
2019-04-03T06:52:42.074Z,13.89
2019-04-03T06:57:44.783Z,13.80
2019-04-03T07:02:47.671Z,13.94
2019-04-03T07:07:50.397Z,14.03
2019-04-03T07:12:53.083Z,14.03
2019-04-03T07:17:55.773Z,14.21
2019-04-03T07:22:59.319Z,14.31
2019-04-03T07:28:02.186Z,14.38
2019-04-03T07:33:05.747Z,14.62
2019-04-03T07:38:09.113Z,14.69
2019-04-03T07:43:11.849Z,14.81
2019-04-03T07:48:14.537Z,14.80
2019-04-03T07:53:17.803Z,14.76
2019-04-03T07:58:25.020Z,14.74
2019-04-03T08:03:26.650Z,14.76
2019-04-03T08:08:29.377Z,14.75
2019-04-03T08:13:32.089Z,14.51
2019-04-03T08:18:34.787Z,14.76
2019-04-03T08:23:37.685Z,14.97
2019-04-03T08:28:40.422Z,15.24
2019-04-03T08:33:43.122Z,15.51
2019-04-03T12:28:55.871Z,17.77
2019-04-03T12:34:04.180Z,17.45
2019-04-03T12:39:09.613Z,17.57
2019-04-03T12:44:12.398Z,17.49
2019-04-03T12:49:15.076Z,17.52
2019-04-03T12:54:20.133Z,17.77
2019-04-03T12:59:22.689Z,17.96
2019-04-03T13:04:26.513Z,16.93
2019-04-03T13:09:30.192Z,14.86
2019-04-03T13:14:33.982Z,13.08
2019-04-03T13:19:37.583Z,12.40
2019-04-03T13:24:40.588Z,12.43
2019-04-03T13:29:43.636Z,12.78
2019-04-03T13:34:46.494Z,13.68
2019-04-03T13:39:49.412Z,14.07
2019-04-03T13:44:52.203Z,14.23
2019-04-03T13:49:55.303Z,14.29
2019-04-03T13:54:59.292Z,13.99
2019-04-03T14:00:16.692Z,13.85
2019-04-03T14:05:07.568Z,13.86
2019-04-03T14:10:11.206Z,13.85
2019-04-03T14:15:13.903Z,14.04
2019-04-03T14:20:17.651Z,14.12
2019-04-03T14:25:22.548Z,14.08
2019-04-03T14:30:24.955Z,14.09
2019-04-03T14:35:47.392Z,14.03
2019-04-03T14:40:32.427Z,14.43
2019-04-03T14:45:36.355Z,14.70
2019-04-03T14:50:39.783Z,14.73
2019-04-03T14:55:48.928Z,14.95
2019-04-03T15:00:48.613Z,14.76
2019-04-03T15:05:51.724Z,14.52
2019-04-03T15:10:54.553Z,14.24
2019-04-03T15:16:00.363Z,14.08
2019-04-03T15:21:02.036Z,13.60
2019-04-03T15:26:04.747Z,13.59
2019-04-03T15:31:07.731Z,13.81
2019-04-03T15:36:10.625Z,13.96
2019-04-03T15:41:13.320Z,13.83
2019-04-03T15:46:16.225Z,13.90
2019-04-03T15:51:19.340Z,13.47
2019-04-03T15:56:22.411Z,13.17
2019-04-03T16:01:25.470Z,13.15
2019-04-03T16:06:28.357Z,13.47
2019-04-03T16:11:31.324Z,13.67
2019-04-03T16:16:34.103Z,13.82
2019-04-03T16:21:37.046Z,13.61
2019-04-03T16:26:40.248Z,13.55
2019-04-03T16:31:43.388Z,13.53
2019-04-03T16:36:49.164Z,13.75
2019-04-03T16:41:50.905Z,13.76
2019-04-03T16:46:53.685Z,13.80
2019-04-03T16:51:56.377Z,13.91
2019-04-03T16:57:00.413Z,13.93
2019-04-03T17:02:04.187Z,13.99
2019-04-03T17:07:06.893Z,14.01
2019-04-03T17:12:09.670Z,13.70
2019-04-03T17:17:14.056Z,13.58
2019-04-03T17:22:17.025Z,13.48
2019-04-03T17:27:19.859Z,13.33
2019-04-03T17:32:22.630Z,13.11
2019-04-03T17:37:27.107Z,13.07
2019-04-03T17:42:30.591Z,12.82
2019-04-03T17:47:33.291Z,12.41
2019-04-03T17:52:36.915Z,12.31
2019-04-03T17:57:40.131Z,12.44
2019-04-03T18:02:42.903Z,12.54
2019-04-03T18:07:45.593Z,12.54
2019-04-03T18:12:50.246Z,12.47
2019-04-03T18:17:53.113Z,12.43
2019-04-03T18:22:55.842Z,12.47
2019-04-03T18:27:58.615Z,12.43
2019-04-03T18:33:01.308Z,12.41
2019-04-03T18:38:04.003Z,12.29
2019-04-03T18:43:06.708Z,12.31
2019-04-03T18:48:09.446Z,12.26
2019-04-03T18:53:12.149Z,12.14
2019-04-03T18:58:14.905Z,12.07
2019-04-03T19:03:17.612Z,12.14
2019-04-03T19:08:20.291Z,12.03
2019-04-03T19:13:23.036Z,12.17
2019-04-03T19:18:25.732Z,12.18
2019-04-03T19:23:28.427Z,12.02
2019-04-03T19:28:31.114Z,12.12
2019-04-03T19:33:33.922Z,11.91
2019-04-03T19:38:36.666Z,11.81
2019-04-03T19:43:39.353Z,11.93
2019-04-03T19:48:42.059Z,12.08
2019-04-03T19:53:49.289Z,12.17
2019-04-03T19:58:49.371Z,12.17
2019-04-03T20:03:52.083Z,12.28
2019-04-03T20:08:54.775Z,12.18
2019-04-03T20:13:57.464Z,12.31
2019-04-03T20:19:00.147Z,12.27
2019-04-03T20:24:02.850Z,12.02
2019-04-03T20:29:05.534Z,11.79
2019-04-03T20:34:08.228Z,11.63
2019-04-03T20:39:10.927Z,11.40
2019-04-03T20:44:16.674Z,11.27
2019-04-03T20:49:18.221Z,11.06
2019-04-03T20:54:21.347Z,10.88
2019-04-03T20:59:24.726Z,10.63
2019-04-03T21:04:27.439Z,10.65
2019-04-03T21:09:30.588Z,10.71
2019-04-03T21:14:33.416Z,10.69
2019-04-03T21:19:36.118Z,10.68
2019-04-03T21:24:38.919Z,10.64
2019-04-03T21:29:41.622Z,10.72
2019-04-03T21:34:44.502Z,10.75
2019-04-03T21:39:47.187Z,10.72
2019-04-03T21:44:49.874Z,10.69
2019-04-03T21:49:52.573Z,10.72
2019-04-03T21:54:55.270Z,10.74
2019-04-03T21:59:57.976Z,10.75
2019-04-03T22:05:00.658Z,10.79
2019-04-03T22:10:04.325Z,10.85
2019-04-03T22:15:07.313Z,10.86
2019-04-03T22:20:10.495Z,10.79
2019-04-03T22:25:13.194Z,10.84
2019-04-03T22:30:15.866Z,10.81
2019-04-03T22:35:18.559Z,10.37
2019-04-03T22:40:21.243Z,10.05
2019-04-03T22:45:23.920Z,9.95
2019-04-03T22:50:26.614Z,9.99
2019-04-03T22:55:29.287Z,10.03
2019-04-03T23:00:32.120Z,10.02
2019-04-03T23:05:34.972Z,9.95
2019-04-03T23:10:37.744Z,10.07
2019-04-03T23:15:40.443Z,10.32
2019-04-03T23:20:43.154Z,10.33
2019-04-03T23:25:45.843Z,10.51
2019-04-03T23:30:49.002Z,10.65
2019-04-03T23:35:51.689Z,10.70
2019-04-03T23:40:54.369Z,10.62
2019-04-03T23:45:57.061Z,10.66
2019-04-03T23:50:59.748Z,10.64
2019-04-03T23:56:02.432Z,10.77
